Time;durP1;ratioP1;P1;durP2;ratioP2;P2;SDS_P1;SDS_P2;PMS_P1;PMS_P2;Temp;Humidity;BMP_temperature;BMP_pressure;BME280_temperature;BME280_humidity;BME280_pressure;Samples;Min_cycle;Max_cycle;Signal;HPM_P1;HPM_P2
2022/09/20 00:01:19;;;;;;;0.90;0.80;;;;;;;8.84;90.07;99140.42;1697175;84;22166;-61
2022/09/20 00:03:51;;;;;;;2.50;1.02;;;;;;;8.75;89.95;99136.52;1654209;85;21025;-61
2022/09/20 00:06:23;;;;;;;2.75;1.30;;;;;;;8.67;89.98;99142.08;1686301;84;21642;-61
2022/09/20 00:08:49;;;;;;;5.45;2.25;;;;;;;8.58;89.92;99147.74;1675075;84;21012;-60
2022/09/20 00:11:26;;;;;;;1.77;1.20;;;;;;;8.50;90.03;99144.66;1653108;85;21026;-61
2022/09/20 00:13:55;;;;;;;1.00;0.80;;;;;;;8.44;90.11;99144.97;1669114;85;22178;-59
2022/09/20 00:16:26;;;;;;;2.77;1.40;;;;;;;8.36;90.16;99141.84;1648869;84;21023;-60
2022/09/20 00:18:56;;;;;;;2.72;1.17;;;;;;;8.26;90.00;99137.09;1638084;85;21209;-60
2022/09/20 00:21:29;;;;;;;1.30;1.20;;;;;;;8.17;90.07;99147.90;1671627;83;21148;-60
2022/09/20 00:23:57;;;;;;;1.17;0.90;;;;;;;8.11;90.04;99145.59;1685013;82;21001;-60
2022/09/20 00:26:26;;;;;;;2.02;1.40;;;;;;;8.02;90.07;99139.52;1679730;83;21525;-60
2022/09/20 00:28:52;;;;;;;3.08;1.20;;;;;;;7.99;90.23;99151.37;1686583;83;21448;-60
2022/09/20 00:31:19;;;;;;;1.40;1.07;;;;;;;7.94;90.30;99152.03;1658996;84;21045;-60
2022/09/20 00:36:31;;;;;;;3.75;1.30;;;;;;;7.89;90.46;99150.09;1671728;84;21005;-60
2022/09/20 00:39:01;;;;;;;2.00;1.32;;;;;;;7.87;90.49;99144.11;1678522;84;21124;-60
2022/09/20 00:41:30;;;;;;;1.90;1.37;;;;;;;7.84;90.59;99148.55;1671376;84;20927;-61
2022/09/20 00:44:00;;;;;;;1.82;1.10;;;;;;;7.84;90.72;99150.28;1705282;83;20988;-61
2022/09/20 00:46:37;;;;;;;3.52;1.20;;;;;;;7.85;90.87;99154.59;1697527;83;21054;-61
2022/09/20 00:49:25;;;;;;;1.22;1.10;;;;;;;7.85;90.88;99150.23;1683726;83;21058;-60
2022/09/20 00:51:55;;;;;;;;;;;;;;;7.87;90.94;99160.57;1680186;83;21409;-60
2022/09/20 00:54:24;;;;;;;1.52;0.90;;;;;;;7.87;91.06;99151.91;1686656;83;20289;-61
2022/09/20 00:56:51;;;;;;;1.52;1.05;;;;;;;7.89;91.12;99157.89;1685662;83;21181;-60
2022/09/20 00:59:29;;;;;;;;;;;;;;;7.93;91.23;99156.85;1704786;83;21034;-61
2022/09/20 01:02:19;;;;;;;3.02;1.20;;;;;;;7.98;91.31;99156.16;1672392;84;20148;-61
2022/09/20 01:04:48;;;;;;;2.65;1.10;;;;;;;7.99;91.21;99156.11;1679886;84;21947;-60
2022/09/20 01:07:18;;;;;;;2.47;1.10;;;;;;;8.00;91.13;99162.14;1682991;84;21032;-61
2022/09/20 01:09:44;;;;;;;1.72;0.93;;;;;;;8.02;91.15;99162.92;1678090;84;21637;-61
2022/09/20 01:12:18;;;;;;;2.75;1.85;;;;;;;8.07;91.07;99162.27;1682069;84;21475;-61
2022/09/20 01:14:48;;;;;;;3.47;1.42;;;;;;;8.09;91.33;99168.21;1668662;84;21034;-60
2022/09/20 01:17:18;;;;;;;0.93;0.88;;;;;;;8.14;91.40;99161.05;1696255;83;21546;-59
2022/09/20 01:20:11;;;;;;;1.37;0.70;;;;;;;8.18;91.36;99162.61;1646847;85;21016;-60
2022/09/20 01:23:28;;;;;;;1.95;0.70;;;;;;;8.17;91.19;99164.80;1699464;83;21148;-59
2022/09/20 01:26:22;;;;;;;2.60;1.10;;;;;;;8.23;91.16;99167.14;1683987;84;21029;-60
2022/09/20 01:28:53;;;;;;;1.35;0.80;;;;;;;8.15;91.21;99180.95;1700363;84;20978;-60
2022/09/20 01:31:26;;;;;;;1.07;0.80;;;;;;;8.11;91.39;99180.69;1674617;84;21534;-60
2022/09/20 01:34:00;;;;;;;1.45;1.05;;;;;;;8.12;91.44;99179.77;1694246;83;20943;-60
2022/09/20 01:36:49;;;;;;;0.80;0.53;;;;;;;8.29;90.95;99179.86;1641088;85;21550;-60
2022/09/20 01:39:40;;;;;;;1.72;0.88;;;;;;;8.21;91.43;99178.06;1627238;85;21068;-60
2022/09/20 01:42:12;;;;;;;3.17;0.90;;;;;;;8.21;91.30;99181.97;1662483;84;21544;-61
2022/09/20 01:45:05;;;;;;;1.95;1.10;;;;;;;8.20;91.46;99173.77;1699685;84;21267;-61
2022/09/20 01:47:46;;;;;;;2.22;0.75;;;;;;;8.23;91.63;99178.85;1635665;85;21082;-60
2022/09/20 01:50:38;;;;;;;0.88;0.80;;;;;;;8.24;91.65;99174.02;1683122;83;21495;-59
2022/09/20 01:53:35;;;;;;;1.17;0.80;;;;;;;8.24;91.68;99174.48;1681039;83;20982;-59
2022/09/20 01:56:22;;;;;;;1.22;1.02;;;;;;;8.25;91.75;99176.16;1623775;87;21090;-59
2022/09/20 01:59:18;;;;;;;2.20;1.40;;;;;;;8.25;91.74;99171.80;1618866;87;21140;-61
2022/09/20 02:02:07;;;;;;;0.93;0.60;;;;;;;8.21;91.77;99170.27;1600199;87;21129;-61
2022/09/20 02:04:57;;;;;;;1.42;0.80;;;;;;;8.21;91.93;99172.87;1607829;87;21676;-60
2022/09/20 02:08:09;;;;;;;3.27;0.68;;;;;;;8.24;91.85;99168.82;1625206;87;21104;-61
2022/09/20 02:11:18;;;;;;;1.87;0.57;;;;;;;8.19;91.92;99169.48;1600022;87;21036;-59
2022/09/20 02:14:24;;;;;;;1.22;0.60;;;;;;;8.20;91.86;99169.86;1602154;88;23448;-59
2022/09/20 02:16:55;;;;;;;2.08;0.85;;;;;;;8.18;92.03;99174.31;1596356;88;27387;-59
2022/09/20 02:19:51;;;;;;;1.00;0.70;;;;;;;8.35;91.53;99172.69;1635132;87;21041;-60
2022/09/20 02:22:41;;;;;;;1.67;0.78;;;;;;;8.24;91.85;99168.82;1624312;87;21097;-61
2022/09/20 02:25:25;;;;;;;1.05;0.70;;;;;;;8.40;91.77;99169.42;1625283;87;20989;-60
2022/09/20 02:28:12;;;;;;;1.67;0.80;;;;;;;8.37;91.60;99177.34;1620584;87;22362;-59
2022/09/20 02:31:03;;;;;;;0.50;0.47;;;;;;;8.29;92.09;99181.16;1619790;87;21108;-60
2022/09/20 02:33:50;;;;;;;1.55;0.60;;;;;;;8.29;92.04;99181.16;1650134;85;21570;-60
2022/09/20 02:36:40;;;;;;;0.65;0.45;;;;;;;8.31;91.98;99183.67;1654491;85;21032;-60
2022/09/20 02:39:23;;;;;;;0.93;0.60;;;;;;;8.42;91.65;99178.00;1653018;85;21024;-60
2022/09/20 02:42:14;;;;;;;1.65;0.70;;;;;;;8.35;91.87;99173.99;1651455;85;21211;-61
2022/09/20 02:45:10;;;;;;;1.65;0.70;;;;;;;8.20;91.67;99173.77;1651012;85;20949;-61
2022/09/20 02:47:44;;;;;;;2.75;0.80;;;;;;;8.18;91.77;99184.72;1656899;85;21118;-61
2022/09/20 02:50:38;;;;;;;3.67;1.00;;;;;;;8.17;91.30;99179.11;1650135;85;20972;-61
2022/09/20 02:53:44;;;;;;;1.32;0.95;;;;;;;8.13;91.14;99184.08;1657377;85;21546;-62
2022/09/20 02:56:39;;;;;;;2.75;0.70;;;;;;;7.87;92.04;99185.70;1646447;85;21068;-61
2022/09/20 02:59:46;;;;;;;1.42;0.72;;;;;;;7.79;92.28;99188.66;1665660;84;20974;-61
2022/09/20 03:02:26;;;;;;;1.72;0.60;;;;;;;7.73;92.33;99189.77;1687632;84;21603;-59
2022/09/20 03:05:08;;;;;;;7.60;1.20;;;;;;;7.65;92.37;99193.16;1678455;84;21453;-60
2022/09/20 03:08:14;;;;;;;3.08;1.00;;;;;;;7.59;92.35;99194.73;1705196;83;21045;-60
2022/09/20 03:11:19;;;;;;;1.42;0.82;;;;;;;7.54;92.41;99181.09;1689243;84;21064;-60
2022/09/20 03:14:14;;;;;;;3.67;0.98;;;;;;;7.58;92.40;99193.02;1665862;85;21651;-59
2022/09/20 03:17:04;;;;;;;1.57;0.70;;;;;;;7.48;92.48;99196.92;1642833;85;21154;-59
2022/09/20 03:19:56;;;;;;;1.07;0.65;;;;;;;7.47;92.24;99199.14;1681481;84;22199;-59
2022/09/20 03:22:54;;;;;;;1.35;0.70;;;;;;;7.42;92.29;99204.98;1689107;84;20901;-59
2022/09/20 03:25:41;;;;;;;1.47;0.80;;;;;;;7.37;92.33;99198.24;1687488;84;21164;-60
2022/09/20 03:28:35;;;;;;;2.83;1.10;;;;;;;7.31;92.27;99206.30;1710888;83;20969;-61
2022/09/20 03:31:13;;;;;;;0.72;0.70;;;;;;;7.25;92.27;99211.72;1682333;84;21666;-60
2022/09/20 03:34:23;;;;;;;4.58;0.93;;;;;;;7.17;92.43;99206.03;1668003;82;21099;-60
2022/09/20 03:37:20;;;;;;;1.15;0.72;;;;;;;7.12;92.44;99205.38;1682042;84;20968;-60
2022/09/20 03:40:29;;;;;;;1.02;0.75;;;;;;;7.06;92.51;99213.42;1647734;84;21174;-60
2022/09/20 03:43:07;;;;;;;1.92;1.00;;;;;;;7.00;92.54;99216.24;1661630;85;21079;-60
2022/09/20 03:46:03;;;;;;;2.62;0.60;;;;;;;6.93;92.66;99223.44;1628551;87;21043;-60
2022/09/20 03:49:10;;;;;;;1.98;0.98;;;;;;;6.88;92.78;99221.02;1632139;87;21001;-60
2022/09/20 03:51:46;;;;;;;;;;;;;;;6.89;92.95;99224.45;1631058;87;21215;-60
2022/09/20 03:54:30;;;;;;;3.50;0.78;;;;;;;6.89;93.20;99233.11;1632688;87;21053;-60
2022/09/20 03:57:33;;;;;;;2.75;1.00;;;;;;;6.91;93.21;99230.44;1621625;87;21163;-61
2022/09/20 04:00:19;;;;;;;1.60;0.80;;;;;;;6.92;93.27;99238.18;1598047;88;21355;-60
2022/09/20 04:03:16;;;;;;;2.77;1.35;;;;;;;6.92;93.30;99227.80;1599638;89;21670;-60
2022/09/20 04:06:00;;;;;;;2.30;1.47;;;;;;;6.93;93.36;99234.66;1594872;89;21065;-61
2022/09/20 04:08:54;;;;;;;2.08;1.30;;;;;;;6.95;93.38;99234.16;1589936;89;22412;-60
2022/09/20 04:12:00;;;;;;;1.87;1.30;;;;;;;6.95;93.41;99238.05;1547968;91;21090;-60
2022/09/20 04:14:49;;;;;;;4.12;1.45;;;;;;;6.99;93.53;99232.73;1547760;91;21045;-60
2022/09/20 04:17:57;;;;;;;2.55;1.07;;;;;;;7.02;93.56;99241.70;1523890;93;21717;-61
2022/09/20 04:20:38;;;;;;;1.37;0.75;;;;;;;7.09;93.68;99244.45;1540902;91;21194;-60
2022/09/20 04:23:33;;;;;;;2.02;1.10;;;;;;;7.15;93.70;99236.41;1508081;93;21155;-60
2022/09/20 04:26:01;;;;;;;1.60;0.72;;;;;;;7.17;93.54;99237.19;1517074;93;21163;-61
2022/09/20 04:28:48;;;;;;;1.22;0.60;;;;;;;7.20;93.52;99234.47;1566136;90;21080;-61
2022/09/20 04:31:34;;;;;;;2.67;0.57;;;;;;;7.22;93.54;99241.72;1542641;91;21562;-61
2022/09/20 04:34:06;;;;;;;0.90;0.68;;;;;;;7.26;93.59;99239.40;1535820;91;21150;-61
2022/09/20 04:36:57;;;;;;;1.57;1.00;;;;;;;7.26;93.48;99245.89;1590693;89;21529;-61
2022/09/20 04:39:48;;;;;;;1.65;0.82;;;;;;;7.27;93.52;99243.67;1614293;87;21578;-60
2022/09/20 04:42:29;;;;;;;1.47;0.62;;;;;;;7.30;93.73;99248.73;1614367;87;21641;-60
2022/09/20 04:45:40;;;;;;;1.67;0.80;;;;;;;7.31;93.52;99255.64;1611294;87;21509;-60
2022/09/20 04:48:24;;;;;;;2.30;0.80;;;;;;;7.29;93.55;99263.94;1629347;85;21034;-60
2022/09/20 04:51:08;;;;;;;1.95;0.70;;;;;;;7.33;93.76;99264.65;1662854;84;21626;-60
2022/09/20 04:54:20;;;;;;;2.08;0.90;;;;;;;7.35;93.81;99262.38;1665026;84;21109;-60
2022/09/20 04:57:04;;;;;;;1.67;0.90;;;;;;;7.37;93.81;99269.66;1665560;84;21710;-60
2022/09/20 04:59:56;;;;;;;1.30;0.70;;;;;;;7.41;93.85;99266.48;1659572;84;21105;-60
2022/09/20 05:03:03;;;;;;;1.22;0.88;;;;;;;7.44;93.88;99272.00;1670723;84;21139;-59
2022/09/20 05:06:13;;;;;;;1.75;1.10;;;;;;;7.43;93.79;99271.63;1658275;84;21496;-60
2022/09/20 05:09:22;;;;;;;3.08;0.88;;;;;;;7.45;93.76;99277.58;1679041;84;20990;-60
2022/09/20 05:12:16;;;;;;;2.70;0.88;;;;;;;7.50;93.85;99275.64;1681710;84;21070;-60
2022/09/20 05:15:23;;;;;;;1.42;0.90;;;;;;;7.49;93.67;99272.20;1636797;85;21014;-61
2022/09/20 05:18:16;;;;;;;2.12;0.90;;;;;;;7.49;93.65;99275.27;1648254;85;21114;-60
2022/09/20 05:21:06;;;;;;;1.90;0.90;;;;;;;7.53;93.82;99288.50;1698352;84;21028;-61
2022/09/20 05:24:14;;;;;;;4.35;1.82;;;;;;;7.61;93.93;99286.42;1657605;85;21006;-60
2022/09/20 05:26:47;;;;;;;3.12;0.98;;;;;;;7.66;93.85;99292.28;1690998;84;20981;-61
2022/09/20 05:29:34;;;;;;;1.87;0.80;;;;;;;7.72;93.81;99292.02;1602557;88;21151;-60
2022/09/20 05:32:10;;;;;;;;;;;;;;;7.74;93.80;99295.40;1596806;88;21123;-59
2022/09/20 05:34:49;;;;;;;2.08;0.88;;;;;;;7.72;93.65;99299.81;1592586;89;21573;-60
2022/09/20 05:37:33;;;;;;;1.77;0.80;;;;;;;7.78;93.92;99302.14;1598563;88;21129;-60
2022/09/20 05:40:23;;;;;;;0.90;0.80;;;;;;;7.89;93.99;99299.09;1603114;88;21706;-61
2022/09/20 05:42:55;;;;;;;0.85;0.60;;;;;;;7.96;93.87;99307.48;1622877;88;21480;-61
2022/09/20 05:45:39;;;;;;;2.85;0.70;;;;;;;8.14;94.30;99306.67;1600428;88;20983;-61
2022/09/20 05:48:14;;;;;;;0.57;0.50;;;;;;;8.98;96.41;99303.31;1548304;92;21597;-62
2022/09/20 05:51:07;;;;;;;1.55;0.95;;;;;;;9.93;96.06;99307.76;1547478;91;21088;-60
2022/09/20 05:54:16;;;;;;;1.85;0.90;;;;;;;10.77;95.42;99306.41;1549509;91;21140;-61
2022/09/20 05:57:24;;;;;;;2.40;0.80;;;;;;;11.95;94.93;99303.61;1547854;91;21061;-60
2022/09/20 06:00:27;;;;;;;3.60;0.95;;;;;;;12.67;93.26;99300.53;1547610;90;21208;-61
2022/09/20 06:03:17;;;;;;;0.85;0.50;;;;;;;12.81;92.08;99304.07;1551483;90;21212;-61
2022/09/20 06:06:08;;;;;;;2.67;0.60;;;;;;;13.03;92.94;99304.86;1567419;88;21597;-60
2022/09/20 06:09:12;;;;;;;2.00;0.60;;;;;;;13.81;93.53;99302.39;1629702;85;21526;-62
2022/09/20 06:12:13;;;;;;;0.98;0.37;;;;;;;14.54;92.33;99303.92;1643351;86;21192;-62
2022/09/20 06:15:12;;;;;;;3.05;0.82;;;;;;;15.25;92.44;99301.96;1645258;85;21061;-62
2022/09/20 06:18:05;;;;;;;3.65;0.70;;;;;;;15.86;91.51;99306.64;1637389;85;21970;-62
2022/09/20 06:21:05;;;;;;;0.93;0.50;;;;;;;16.53;90.95;99304.55;1581992;89;21070;-61
2022/09/20 06:23:34;;;;;;;1.47;0.72;;;;;;;16.72;89.14;99304.78;1562790;89;21015;-62
2022/09/20 06:26:11;;;;;;;2.92;0.55;;;;;;;16.60;89.13;99308.36;1593558;87;21125;-62
2022/09/20 06:28:43;;;;;;;2.87;0.72;;;;;;;16.58;89.74;99310.30;1632607;86;21196;-62
2022/09/20 06:31:10;;;;;;;8.13;0.72;;;;;;;16.71;89.98;99313.63;1628055;85;21197;-62
2022/09/20 06:33:54;;;;;;;1.12;0.80;;;;;;;16.70;89.65;99314.59;1619882;86;21158;-62
2022/09/20 06:42:35;;;;;;;1.02;0.75;;;;;;;16.25;89.19;99334.84;1629221;86;21138;-61
2022/09/20 06:45:01;;;;;;;2.77;0.95;;;;;;;16.02;89.08;99333.94;1630397;86;21883;-61
2022/09/20 06:47:28;;;;;;;1.07;0.78;;;;;;;15.82;88.84;99335.00;1636149;86;21036;-61
2022/09/20 06:49:55;;;;;;;1.87;0.88;;;;;;;15.71;90.10;99334.97;1628727;86;21175;-62
2022/09/20 06:52:22;;;;;;;0.90;0.72;;;;;;;15.70;89.60;99337.22;1672098;83;21127;-61
2022/09/20 06:54:53;;;;;;;2.52;0.80;;;;;;;15.45;88.94;99335.05;1659900;84;21012;-61
2022/09/20 06:57:31;;;;;;;2.47;0.80;;;;;;;15.18;88.78;99339.72;1675708;83;21546;-61
2022/09/20 06:59:57;;;;;;;2.37;0.45;;;;;;;14.73;88.78;99342.02;1695056;83;21001;-61
2022/09/20 07:02:25;;;;;;;1.50;0.57;;;;;;;14.41;87.98;99356.06;1673095;83;28277;-61
2022/09/20 07:04:58;;;;;;;0.95;0.60;;;;;;;14.00;88.40;99360.58;1672974;83;20954;-61
2022/09/20 07:07:20;;;;;;;0.60;0.42;;;;;;;13.49;87.38;99368.30;1670281;83;21046;-61
2022/09/20 07:09:47;;;;;;;1.42;0.70;;;;;;;13.20;87.90;99374.08;1650400;85;21173;-61
2022/09/20 07:12:14;;;;;;;1.20;0.60;;;;;;;13.00;87.70;99372.72;1697483;84;21905;-61
2022/09/20 07:14:41;;;;;;;1.30;0.60;;;;;;;12.76;88.43;99378.54;1690585;84;21016;-61
2022/09/20 07:17:08;;;;;;;2.15;1.05;;;;;;;12.81;88.47;99381.36;1680298;84;21056;-62
2022/09/20 07:19:35;;;;;;;1.90;1.00;;;;;;;12.79;88.61;99374.05;1679322;84;20985;-61
2022/09/20 07:22:02;;;;;;;2.75;0.85;;;;;;;12.76;88.10;99377.23;1707512;84;21131;-61
2022/09/20 07:24:31;;;;;;;1.32;0.70;;;;;;;12.87;89.52;99378.35;1693651;84;20954;-62
2022/09/20 07:27:01;;;;;;;1.25;0.80;;;;;;;13.27;89.63;99381.11;1678262;84;20980;-61
2022/09/20 07:29:30;;;;;;;2.08;0.90;;;;;;;13.60;90.81;99384.18;1679079;83;21034;-61
2022/09/20 07:31:57;;;;;;;4.33;0.72;;;;;;;14.07;90.81;99382.83;1654859;84;21000;-61
2022/09/20 07:34:24;;;;;;;1.37;0.98;;;;;;;14.02;88.64;99387.54;1666572;84;21145;-61
2022/09/20 07:36:51;;;;;;;1.67;0.50;;;;;;;13.66;86.76;99386.40;1675576;83;20990;-61
2022/09/20 07:39:18;;;;;;;2.05;0.70;;;;;;;13.25;86.87;99392.13;1667492;84;21561;-61
2022/09/20 07:41:47;;;;;;;;;;;;;;;13.14;88.16;99392.36;1661168;84;21001;-61
2022/09/20 07:44:20;;;;;;;1.12;0.53;;;;;;;13.36;88.88;99391.00;1676894;83;20526;-62
2022/09/20 07:46:52;;;;;;;1.30;0.60;;;;;;;13.48;87.93;99393.33;1678744;84;21471;-61
2022/09/20 07:49:20;;;;;;;1.27;0.47;;;;;;;13.75;88.26;99393.30;1682849;84;21053;-62
2022/09/20 07:51:48;;;;;;;3.25;0.70;;;;;;;13.96;88.12;99393.20;1688985;83;21018;-62
2022/09/20 07:54:16;;;;;;;3.25;0.68;;;;;;;14.05;86.23;99389.96;1697496;83;21096;-62
2022/09/20 07:56:44;;;;;;;1.37;0.50;;;;;;;13.96;86.53;99398.45;1666385;83;21065;-63
2022/09/20 07:59:12;;;;;;;0.60;0.37;;;;;;;13.81;85.67;99395.07;1670324;84;22380;-62
2022/09/20 08:01:39;;;;;;;1.10;0.50;;;;;;;13.61;85.49;99400.31;1661153;84;21071;-62
2022/09/20 08:04:08;;;;;;;;;;;;;;;13.49;86.15;99402.39;1651574;85;20985;-62
2022/09/20 08:06:40;;;;;;;2.52;0.65;;;;;;;13.72;87.10;99400.06;1656422;84;20323;-62
2022/09/20 08:09:08;;;;;;;0.60;0.30;;;;;;;14.07;87.89;99406.45;1703547;84;21028;-62
2022/09/20 08:11:36;;;;;;;3.95;0.80;;;;;;;14.17;85.78;99404.52;1700206;84;21961;-62
2022/09/20 08:14:03;;;;;;;2.15;0.65;;;;;;;14.04;84.84;99406.66;1703015;84;21040;-62
2022/09/20 08:16:31;;;;;;;1.65;0.60;;;;;;;13.89;85.32;99407.66;1691720;84;20986;-61
2022/09/20 08:19:01;;;;;;;4.00;1.10;;;;;;;13.97;85.29;99417.66;1703275;84;21071;-62
2022/09/20 08:21:31;;;;;;;2.05;0.60;;;;;;;13.98;85.92;99410.17;1695165;84;20971;-62
2022/09/20 08:23:59;;;;;;;1.25;0.50;;;;;;;13.91;83.58;99413.66;1639349;85;22608;-62
2022/09/20 08:26:30;;;;;;;0.72;0.50;;;;;;;14.04;84.81;99411.91;1660156;85;21090;-62
2022/09/20 08:28:59;;;;;;;1.77;0.60;;;;;;;14.22;85.78;99411.63;1639600;85;21024;-62
2022/09/20 08:31:35;;;;;;;1.35;0.60;;;;;;;14.38;82.51;99410.96;1676464;84;20921;-63
2022/09/20 08:34:01;;;;;;;1.00;0.50;;;;;;;14.42;84.30;99413.73;1669859;84;21003;-63
2022/09/20 08:36:27;;;;;;;0.60;0.30;;;;;;;14.64;84.49;99412.30;1660604;85;21171;-62
2022/09/20 08:38:54;;;;;;;1.02;0.50;;;;;;;14.53;82.48;99421.75;1656447;85;21067;-61
2022/09/20 08:41:41;;;;;;;1.22;0.35;;;;;;;14.48;83.62;99417.73;1612470;85;21076;-61
2022/09/20 08:44:23;;;;;;;0.35;0.20;;;;;;;14.63;83.21;99424.61;1657995;85;20973;-61
2022/09/20 08:46:52;;;;;;;0.35;0.20;;;;;;;14.05;75.48;99438.52;1636025;86;21004;-61
2022/09/20 08:49:28;;;;;;;2.02;0.37;;;;;;;13.68;80.10;99435.33;1637579;85;21218;-60
2022/09/20 08:51:57;;;;;;;0.53;0.40;;;;;;;13.23;80.83;99432.03;1667457;84;21068;-60
2022/09/20 08:54:30;;;;;;;1.27;0.50;;;;;;;12.88;81.70;99440.29;1662171;85;22163;-60
2022/09/20 08:57:03;;;;;;;1.85;0.40;;;;;;;12.57;82.58;99450.00;1667112;84;21117;-61
2022/09/20 08:59:25;;;;;;;0.68;0.50;;;;;;;12.43;83.30;99448.20;1649658;85;21586;-61
2022/09/20 09:01:53;;;;;;;2.10;0.60;;;;;;;12.47;83.83;99444.48;1657176;84;21474;-61
2022/09/20 09:04:22;;;;;;;;;;;;;;;12.54;84.11;99442.33;1663896;84;21012;-60
2022/09/20 09:06:51;;;;;;;0.72;0.40;;;;;;;12.73;84.47;99438.98;1675365;84;20162;-61
2022/09/20 09:09:25;;;;;;;1.00;0.40;;;;;;;13.04;84.92;99439.73;1664761;84;21716;-61
2022/09/20 09:11:54;;;;;;;0.60;0.28;;;;;;;13.32;84.48;99441.97;1653629;84;21522;-61
2022/09/20 09:14:53;;;;;;;0.98;0.30;;;;;;;13.45;84.49;99444.20;1650894;84;21525;-61
2022/09/20 09:17:22;;;;;;;1.40;0.70;;;;;;;13.52;83.39;99446.78;1672073;84;20949;-60
2022/09/20 09:20:09;;;;;;;1.10;0.35;;;;;;;13.27;81.97;99442.72;1652376;85;21740;-61
2022/09/20 09:22:46;;;;;;;0.50;0.20;;;;;;;13.17;81.91;99448.52;1660567;85;21510;-60
2022/09/20 09:25:18;;;;;;;1.30;0.40;;;;;;;13.39;83.14;99451.98;1672662;84;20985;-60
2022/09/20 09:28:11;;;;;;;1.52;0.50;;;;;;;13.74;83.59;99440.17;1657351;84;21832;-61
2022/09/20 09:30:42;;;;;;;0.93;0.50;;;;;;;13.90;82.21;99443.96;1663377;85;20926;-59
2022/09/20 09:33:31;;;;;;;0.78;0.50;;;;;;;13.78;82.15;99441.64;1658621;84;21045;-60
2022/09/20 09:36:09;;;;;;;1.40;0.50;;;;;;;13.69;80.97;99442.24;1645400;84;21017;-60
2022/09/20 09:38:40;;;;;;;1.42;0.50;;;;;;;13.70;81.82;99449.20;1677164;84;20969;-61
2022/09/20 09:41:30;;;;;;;1.85;0.60;;;;;;;13.62;81.83;99455.77;1673359;84;21108;-62
2022/09/20 09:44:09;;;;;;;0.57;0.40;;;;;;;13.59;82.16;99455.96;1678280;84;21479;-62
2022/09/20 09:46:43;;;;;;;1.52;0.85;;;;;;;13.66;82.62;99454.61;1677211;82;21022;-62
2022/09/20 09:49:23;;;;;;;0.75;0.50;;;;;;;13.71;78.18;99465.30;1677425;84;21570;-61
2022/09/20 09:52:08;;;;;;;0.50;0.30;;;;;;;13.78;78.11;99450.83;1677693;84;20980;-61
2022/09/20 09:54:39;;;;;;;0.85;0.60;;;;;;;13.95;79.48;99451.91;1676533;84;21205;-61
2022/09/20 09:57:32;;;;;;;0.90;0.40;;;;;;;14.11;79.37;99458.28;1678260;84;20969;-61
2022/09/20 10:00:22;;;;;;;1.15;0.47;;;;;;;14.26;77.85;99460.38;1674245;84;21175;-61
2022/09/20 10:03:29;;;;;;;1.27;0.60;;;;;;;14.06;78.91;99470.42;1669988;84;20954;-61
2022/09/20 10:06:13;;;;;;;1.67;0.30;;;;;;;14.20;79.45;99462.08;1591410;88;21113;-61
2022/09/20 10:09:23;;;;;;;0.68;0.30;;;;;;;14.55;79.63;99450.56;1591309;88;21580;-61
2022/09/20 10:12:14;;;;;;;0.65;0.20;;;;;;;14.85;80.63;99452.87;1547509;91;21587;-61
2022/09/20 10:15:01;;;;;;;0.20;0.20;;;;;;;14.50;76.93;99475.79;1557245;91;21091;-60
2022/09/20 10:17:39;;;;;;;1.17;0.40;;;;;;;14.24;77.30;99478.02;1569156;91;21082;-60
2022/09/20 10:20:30;;;;;;;2.15;0.40;;;;;;;13.75;76.45;99469.39;1523798;92;21232;-60
2022/09/20 10:23:31;;;;;;;1.05;0.40;;;;;;;13.69;76.22;99489.47;1514610;92;21160;-59
2022/09/20 10:26:25;;;;;;;0.75;0.35;;;;;;;13.66;76.69;99483.47;1526742;93;21088;-60
2022/09/20 10:29:07;;;;;;;0.65;0.40;;;;;;;13.94;78.18;99475.13;1518809;92;21125;-60
2022/09/20 10:31:45;;;;;;;0.30;0.30;;;;;;;13.96;76.04;99486.86;1517169;93;21053;-60
2022/09/20 10:34:23;;;;;;;1.45;0.30;;;;;;;13.88;76.75;99488.19;1511628;93;21259;-60
